createdAt,value
2019-03-06T00:00:41.453Z,19.90
2019-03-06T00:03:08.422Z,19.93
2019-03-06T00:05:35.809Z,19.17
2019-03-06T00:08:02.781Z,21.33
2019-03-06T00:10:30.078Z,20.63
2019-03-06T00:12:56.952Z,24.83
2019-03-06T00:15:23.936Z,26.17
2019-03-06T00:17:50.917Z,25.60
2019-03-06T00:20:18.192Z,26.90
2019-03-06T00:22:46.065Z,31.23
2019-03-06T00:25:13.025Z,31.73
2019-03-06T00:27:40.006Z,28.83
2019-03-06T00:30:07.934Z,28.17
2019-03-06T00:32:34.708Z,32.10
2019-03-06T00:35:03.782Z,30.43
2019-03-06T00:37:30.551Z,27.37
2019-03-06T00:40:06.508Z,30.80
2019-03-06T00:42:35.086Z,31.43
2019-03-06T00:45:02.273Z,35.00
2019-03-06T00:47:29.043Z,36.83
2019-03-06T00:49:55.824Z,36.87
2019-03-06T00:52:22.714Z,40.73
2019-03-06T00:54:49.569Z,38.67
2019-03-06T00:57:16.345Z,41.93
2019-03-06T00:59:43.417Z,44.83
2019-03-06T01:02:10.394Z,43.37
2019-03-06T01:04:37.153Z,39.43
2019-03-06T01:07:04.124Z,39.33
2019-03-06T01:09:31.091Z,45.30
2019-03-06T01:11:58.768Z,40.90
2019-03-06T01:14:26.043Z,41.33
2019-03-06T01:16:52.921Z,49.97
2019-03-06T01:19:19.804Z,43.77
2019-03-06T01:21:46.691Z,51.33
2019-03-06T01:24:13.548Z,53.57
2019-03-06T01:26:40.441Z,47.73
2019-03-06T01:29:07.526Z,52.97
2019-03-06T01:31:34.303Z,49.47
2019-03-06T01:34:10.330Z,61.87
2019-03-06T01:36:48.252Z,60.27
2019-03-06T01:39:27.483Z,57.13
2019-03-06T01:42:17.279Z,55.23
2019-03-06T01:45:05.129Z,55.20
2019-03-06T01:47:32.005Z,56.63
2019-03-06T01:49:58.774Z,60.50
2019-03-06T01:52:25.749Z,62.30
2019-03-06T01:54:52.512Z,51.13
2019-03-06T01:57:19.388Z,67.53
2019-03-06T01:59:46.261Z,57.77
2019-03-06T02:02:13.241Z,66.30
2019-03-06T02:04:40.025Z,44.17
2019-03-06T02:07:07.801Z,45.77
2019-03-06T02:09:34.768Z,48.23
2019-03-06T02:12:01.953Z,47.17
2019-03-06T02:14:28.725Z,49.47
2019-03-06T02:16:55.704Z,55.33
2019-03-06T02:19:22.480Z,50.43
2019-03-06T02:21:49.349Z,44.10
2019-03-06T02:24:16.109Z,45.83
2019-03-06T02:26:42.988Z,57.20
2019-03-06T02:29:09.747Z,44.53
2019-03-06T02:31:36.692Z,41.77
2019-03-06T02:34:03.582Z,41.73
2019-03-06T02:36:30.433Z,47.43
2019-03-06T02:38:57.203Z,39.37
2019-03-06T02:41:23.962Z,45.43
2019-03-06T02:43:50.725Z,48.60
2019-03-06T02:46:17.585Z,40.33
2019-03-06T02:48:44.355Z,43.07
2019-03-06T02:51:11.363Z,37.23
2019-03-06T02:53:38.240Z,31.83
2019-03-06T02:56:05.112Z,35.67
2019-03-06T02:58:47.265Z,33.17
2019-03-06T03:01:25.745Z,31.30
2019-03-06T03:04:18.206Z,29.37
2019-03-06T03:06:51.695Z,33.90
2019-03-06T03:09:19.113Z,28.77
2019-03-06T03:11:46.206Z,32.63
2019-03-06T03:14:12.972Z,32.07
2019-03-06T03:16:39.928Z,30.63
2019-03-06T03:19:06.804Z,34.07
2019-03-06T03:21:33.565Z,33.13
2019-03-06T03:24:00.552Z,32.95
2019-03-06T03:26:27.410Z,29.87
2019-03-06T03:28:54.180Z,27.20
2019-03-06T03:31:20.943Z,29.93
2019-03-06T03:33:47.893Z,30.50
2019-03-06T03:36:14.763Z,28.73
2019-03-06T03:38:41.689Z,28.53
2019-03-06T03:41:08.452Z,38.63
2019-03-06T03:43:35.624Z,35.55
2019-03-06T03:46:02.382Z,36.70
2019-03-06T03:48:29.154Z,33.50
2019-03-06T03:50:56.108Z,37.90
2019-03-06T03:53:22.878Z,37.23
2019-03-06T03:55:49.654Z,41.67
2019-03-06T03:58:16.709Z,42.63
2019-03-06T04:00:43.580Z,44.53
2019-03-06T04:03:10.542Z,39.08
2019-03-06T04:05:37.403Z,33.93
2019-03-06T04:08:04.277Z,34.73
2019-03-06T04:10:31.153Z,47.38
2019-03-06T04:12:57.906Z,40.07
2019-03-06T04:15:24.690Z,41.68
2019-03-06T04:17:51.443Z,43.90
2019-03-06T04:20:18.230Z,36.63
2019-03-06T04:22:45.218Z,47.25
2019-03-06T04:25:12.280Z,44.23
2019-03-06T04:27:39.146Z,39.85
2019-03-06T04:30:08.485Z,39.63
2019-03-06T04:32:35.244Z,50.08
2019-03-06T04:35:02.151Z,48.48
2019-03-06T04:37:29.009Z,50.67
2019-03-06T04:39:55.795Z,56.40
2019-03-06T04:42:22.552Z,45.15
2019-03-06T04:44:49.533Z,52.45
2019-03-06T04:47:16.410Z,56.58
2019-03-06T04:49:52.232Z,50.17
2019-03-06T04:52:12.070Z,56.85
2019-03-06T04:54:38.953Z,65.97
2019-03-06T04:57:05.732Z,70.12
2019-03-06T04:59:32.530Z,56.37
2019-03-06T05:01:59.301Z,50.70
2019-03-06T05:04:26.093Z,49.50
2019-03-06T05:06:53.066Z,48.38
2019-03-06T05:09:19.833Z,53.98
2019-03-06T05:11:46.678Z,57.23
2019-03-06T05:14:13.452Z,53.58
2019-03-06T05:16:54.174Z,42.78
2019-03-06T05:19:20.939Z,39.83
2019-03-06T05:21:47.714Z,46.55
2019-03-06T05:24:14.481Z,42.50
2019-03-06T05:26:41.260Z,49.00
2019-03-06T05:29:08.117Z,36.65
2019-03-06T05:31:34.897Z,40.78
2019-03-06T05:34:01.665Z,47.95
2019-03-06T05:37:17.243Z,48.78
2019-03-06T05:39:44.008Z,42.13
2019-03-06T05:42:10.787Z,39.42
2019-03-06T05:44:37.832Z,45.40
2019-03-06T05:47:04.705Z,55.67
2019-03-06T05:49:31.481Z,46.77
2019-03-06T05:51:58.258Z,47.08
2019-03-06T05:54:25.124Z,42.98
2019-03-06T05:56:51.880Z,47.65
2019-03-06T05:59:18.662Z,49.98
2019-03-06T06:01:45.438Z,50.63
2019-03-06T06:04:12.325Z,48.92
2019-03-06T06:06:39.102Z,45.40
2019-03-06T06:09:06.268Z,44.25
2019-03-06T06:11:33.051Z,55.45
2019-03-06T06:13:59.833Z,38.85
2019-03-06T06:16:26.759Z,46.15
2019-03-06T06:18:53.646Z,41.13
2019-03-06T06:21:40.265Z,53.85
2019-03-06T06:24:11.517Z,51.18
2019-03-06T06:26:38.422Z,64.35
2019-03-06T06:29:05.409Z,52.50
2019-03-06T06:31:32.212Z,46.48
2019-03-06T06:33:58.973Z,40.83
2019-03-06T06:36:25.749Z,31.00
2019-03-06T06:38:52.621Z,32.23
2019-03-06T06:41:19.581Z,24.07
2019-03-06T06:43:46.384Z,24.77
2019-03-06T06:46:13.170Z,20.93
2019-03-06T06:48:40.230Z,23.17
2019-03-06T06:51:19.252Z,25.73
2019-03-06T06:53:57.167Z,22.83
2019-03-06T06:56:34.748Z,21.27
2019-03-06T06:59:29.566Z,24.03
2019-03-06T07:02:14.618Z,23.57
2019-03-06T07:05:19.517Z,16.50
2019-03-06T07:08:15.024Z,17.67
2019-03-06T07:11:10.739Z,19.90
2019-03-06T07:13:57.483Z,23.13
2019-03-06T07:16:43.900Z,30.83
2019-03-06T07:19:14.432Z,15.03
2019-03-06T07:21:52.427Z,18.90
2019-03-06T07:24:32.070Z,13.40
2019-03-06T07:27:14.592Z,10.40
2019-03-06T07:30:13.026Z,9.53
2019-03-06T07:32:49.534Z,14.50
2019-03-06T07:36:19.752Z,14.13
2019-03-06T07:38:49.779Z,9.43
2019-03-06T07:41:27.047Z,10.27
2019-03-06T07:44:19.078Z,10.50
2019-03-06T07:46:56.490Z,11.47
2019-03-06T07:49:45.141Z,9.40
2019-03-06T07:52:20.078Z,16.30
2019-03-06T07:55:09.521Z,15.03
2019-03-06T07:58:14.074Z,12.40
2019-03-06T08:00:40.955Z,11.87
2019-03-06T08:03:22.201Z,8.23
2019-03-06T08:05:49.061Z,8.50
2019-03-06T08:08:15.933Z,6.33
2019-03-06T08:10:42.809Z,11.93
2019-03-06T08:13:28.191Z,8.63
2019-03-06T08:15:59.651Z,7.17
2019-03-06T08:18:33.559Z,6.77
2019-03-06T08:21:14.754Z,4.20
2019-03-06T08:24:03.930Z,16.37
2019-03-06T08:26:30.909Z,6.20
2019-03-06T08:28:57.769Z,5.67
2019-03-06T08:31:30.849Z,6.73
2019-03-06T08:33:57.606Z,6.90
2019-03-06T08:36:24.479Z,8.43
2019-03-06T08:38:51.356Z,14.03
2019-03-06T08:41:18.529Z,3.20
2019-03-06T08:43:45.516Z,5.07
2019-03-06T08:46:34.539Z,9.63
2019-03-06T08:49:18.902Z,5.87
2019-03-06T08:52:01.423Z,4.53
2019-03-06T08:54:56.740Z,5.57
2019-03-06T08:57:38.308Z,4.40
2019-03-06T09:00:28.019Z,5.33
2019-03-06T09:03:12.035Z,5.10
2019-03-06T09:05:53.438Z,4.30
2019-03-06T09:09:01.375Z,9.67
2019-03-06T09:11:34.713Z,3.53
2019-03-06T09:14:15.870Z,6.13
2019-03-06T09:17:07.935Z,6.57
2019-03-06T09:19:57.215Z,5.07
2019-03-06T09:22:42.610Z,4.43
2019-03-06T09:25:18.165Z,4.03
2019-03-06T09:28:00.329Z,4.37
2019-03-06T09:30:48.685Z,3.03
2019-03-06T09:33:23.698Z,7.27
2019-03-06T09:36:08.920Z,5.03
2019-03-06T09:39:00.748Z,5.63
2019-03-06T09:41:45.853Z,5.57
2019-03-06T09:44:30.980Z,4.13
2019-03-06T09:47:20.378Z,3.47
2019-03-06T09:50:05.724Z,5.50
2019-03-06T09:52:53.155Z,3.40
2019-03-06T09:55:54.808Z,3.90
2019-03-06T09:58:40.090Z,4.07
2019-03-06T10:01:26.666Z,2.67
2019-03-06T10:04:09.967Z,6.33
2019-03-06T10:07:01.916Z,5.53
2019-03-06T10:09:59.392Z,4.77
2019-03-06T10:12:47.368Z,3.03
2019-03-06T10:15:34.862Z,5.17
2019-03-06T10:18:08.317Z,8.30
2019-03-06T10:20:35.284Z,10.20
2019-03-06T10:23:02.116Z,5.63
2019-03-06T10:25:30.350Z,5.07
2019-03-06T10:28:05.909Z,6.47
2019-03-06T10:30:26.942Z,9.73
2019-03-06T10:32:54.117Z,123.20
2019-03-06T10:35:21.225Z,43.23
2019-03-06T10:37:48.386Z,232.27
2019-03-06T10:40:15.885Z,58.27
2019-03-06T10:42:42.892Z,34.97
2019-03-06T10:45:10.125Z,79.10
2019-03-06T10:47:37.230Z,10.03
2019-03-06T10:50:04.854Z,10.67
2019-03-06T10:52:31.819Z,7.80
2019-03-06T10:54:58.806Z,9.83
2019-03-06T10:57:25.786Z,7.20
2019-03-06T10:59:52.854Z,7.50
2019-03-06T11:02:19.937Z,11.43
2019-03-06T11:04:51.091Z,8.30
2019-03-06T11:07:19.085Z,5.50
2019-03-06T11:09:46.177Z,2.57
2019-03-06T11:12:13.268Z,3.70
2019-03-06T11:14:40.347Z,5.17
2019-03-06T11:17:07.537Z,2.60
2019-03-06T11:19:34.920Z,1.60
2019-03-06T11:22:01.887Z,3.67
2019-03-06T11:24:28.969Z,2.07
2019-03-06T11:26:56.025Z,4.00
2019-03-06T11:29:23.006Z,3.87
2019-03-06T11:31:50.078Z,4.60
2019-03-06T11:34:17.136Z,3.97
2019-03-06T11:36:44.213Z,4.20
2019-03-06T11:39:11.461Z,2.73
2019-03-06T11:41:38.751Z,3.37
2019-03-06T11:44:06.058Z,6.53
2019-03-06T11:46:33.145Z,3.53
2019-03-06T11:49:00.188Z,2.90
2019-03-06T11:51:27.054Z,4.13
2019-03-06T11:53:53.920Z,1.43
2019-03-06T11:56:20.884Z,3.33
2019-03-06T11:58:48.164Z,1.93
2019-03-06T12:01:17.489Z,2.73
2019-03-06T12:03:44.654Z,2.17
2019-03-06T12:06:11.694Z,1.60
2019-03-06T12:08:45.620Z,2.67
2019-03-06T12:11:07.526Z,2.30
2019-03-06T12:13:34.617Z,2.13
2019-03-06T12:16:01.691Z,0.63
2019-03-06T12:18:28.684Z,2.63
2019-03-06T12:20:55.646Z,2.43
2019-03-06T12:23:22.954Z,2.47
2019-03-06T12:25:50.013Z,2.43
2019-03-06T12:28:16.985Z,1.47
2019-03-06T12:30:44.156Z,4.37
2019-03-06T12:33:19.087Z,3.27
2019-03-06T12:35:46.278Z,5.73
2019-03-06T12:38:13.078Z,0.87
2019-03-06T12:40:40.110Z,2.40
2019-03-06T12:43:07.083Z,2.03
2019-03-06T12:45:34.079Z,1.87
2019-03-06T12:48:01.466Z,1.23
2019-03-06T12:50:29.426Z,2.77
2019-03-06T12:52:56.413Z,1.23
2019-03-06T12:55:23.476Z,3.30
2019-03-06T12:57:58.957Z,1.97
2019-03-06T13:00:21.143Z,2.30
2019-03-06T13:02:48.416Z,0.67
2019-03-06T13:05:16.286Z,3.07
2019-03-06T13:07:43.387Z,0.77
2019-03-06T13:10:11.153Z,0.93
2019-03-06T13:12:38.387Z,1.13
2019-03-06T13:15:06.563Z,0.50
2019-03-06T13:17:33.633Z,1.23
2019-03-06T13:20:00.523Z,2.37
2019-03-06T13:22:27.716Z,0.47
2019-03-06T13:24:54.705Z,1.47
2019-03-06T13:27:21.778Z,2.57
2019-03-06T13:29:48.552Z,2.13
2019-03-06T13:32:15.493Z,2.03
2019-03-06T13:34:50.656Z,2.53
2019-03-06T13:37:15.010Z,1.60
2019-03-06T13:39:41.982Z,1.10
2019-03-06T13:42:08.931Z,0.97
2019-03-06T13:44:35.799Z,4.80
2019-03-06T13:47:02.876Z,1.73
2019-03-06T13:49:29.733Z,1.63
2019-03-06T13:51:56.825Z,1.10
2019-03-06T13:54:23.906Z,4.07
2019-03-06T13:56:51.883Z,2.17
2019-03-06T13:59:18.897Z,2.30
2019-03-06T14:01:45.806Z,2.50
2019-03-06T14:04:12.813Z,2.83
2019-03-06T14:06:39.868Z,2.73
2019-03-06T14:09:08.253Z,3.17
2019-03-06T14:11:35.204Z,3.17
2019-03-06T14:14:02.393Z,3.03
2019-03-06T14:16:29.580Z,1.20
2019-03-06T14:18:56.677Z,1.57
2019-03-06T14:21:23.888Z,2.37
2019-03-06T14:23:51.002Z,3.60
2019-03-06T14:26:18.579Z,1.17
2019-03-06T14:28:45.745Z,3.67
2019-03-06T14:31:13.841Z,4.20
2019-03-06T14:33:40.921Z,4.23
2019-03-06T14:36:07.885Z,3.33
2019-03-06T14:38:35.118Z,4.90
2019-03-06T14:41:02.205Z,4.60
2019-03-06T14:43:29.313Z,2.70
2019-03-06T14:45:56.510Z,4.23
2019-03-06T14:48:23.994Z,3.03
2019-03-06T14:50:51.013Z,4.37
2019-03-06T14:53:17.973Z,6.80
2019-03-06T14:55:45.046Z,5.40
2019-03-06T14:58:12.132Z,4.60
2019-03-06T15:00:39.343Z,6.03
2019-03-06T15:03:06.516Z,5.43
2019-03-06T15:05:33.713Z,7.03
2019-03-06T15:08:00.818Z,6.37
2019-03-06T15:10:27.935Z,2.60
2019-03-06T15:12:54.812Z,4.37
2019-03-06T15:15:21.703Z,2.50
2019-03-06T15:17:48.687Z,2.83
2019-03-06T15:20:16.903Z,2.50
2019-03-06T15:22:44.297Z,2.30
2019-03-06T15:25:13.903Z,3.30
2019-03-06T15:27:40.860Z,2.40
2019-03-06T15:30:09.494Z,8.53
2019-03-06T15:32:36.299Z,5.70
2019-03-06T15:35:03.701Z,13.70
2019-03-06T15:37:30.782Z,57.33
2019-03-06T15:39:57.771Z,10.07
2019-03-06T15:42:24.969Z,134.10
2019-03-06T15:44:52.051Z,55.03
2019-03-06T15:47:19.052Z,9.13
2019-03-06T15:49:46.038Z,9.57
2019-03-06T15:52:13.130Z,9.17
2019-03-06T15:54:40.220Z,9.60
2019-03-06T15:57:07.405Z,6.67
2019-03-06T15:59:34.390Z,9.20
2019-03-06T16:02:01.245Z,51.50
2019-03-06T16:04:28.308Z,7.90
2019-03-06T16:06:55.522Z,6.03
2019-03-06T16:09:22.629Z,15.93
2019-03-06T16:11:49.629Z,8.47
2019-03-06T16:14:16.523Z,6.00
2019-03-06T16:16:43.511Z,8.97
2019-03-06T16:19:10.713Z,8.13
2019-03-06T16:21:37.581Z,11.13
2019-03-06T16:24:04.660Z,7.97
2019-03-06T16:26:31.830Z,9.67
2019-03-06T16:28:58.932Z,9.30
2019-03-06T16:31:26.045Z,3.97
2019-03-06T16:33:53.161Z,3.43
2019-03-06T16:36:21.041Z,3.90
2019-03-06T16:38:47.985Z,6.77
2019-03-06T16:41:15.258Z,6.70
2019-03-06T16:43:42.333Z,7.00
2019-03-06T16:46:09.213Z,4.07
2019-03-06T16:48:36.134Z,4.40
2019-03-06T16:51:03.922Z,4.67
2019-03-06T16:53:31.004Z,3.60
2019-03-06T16:55:58.075Z,5.93
2019-03-06T16:58:25.035Z,7.83
2019-03-06T17:00:52.018Z,7.87
2019-03-06T17:03:19.376Z,7.03
2019-03-06T17:05:46.757Z,5.97
2019-03-06T17:08:13.823Z,4.70
2019-03-06T17:10:41.193Z,5.60
2019-03-06T17:13:08.664Z,4.33
2019-03-06T17:15:35.769Z,14.17
2019-03-06T17:18:02.933Z,16.20
2019-03-06T17:20:30.348Z,8.50
2019-03-06T17:22:57.362Z,7.67
2019-03-06T17:25:26.575Z,13.27
2019-03-06T17:27:53.525Z,10.37
2019-03-06T17:30:21.736Z,14.27
2019-03-06T17:32:56.757Z,6.57
2019-03-06T17:35:24.471Z,10.97
2019-03-06T17:37:51.708Z,9.60
2019-03-06T17:40:19.037Z,8.40
2019-03-06T17:42:46.176Z,16.17
2019-03-06T17:45:14.593Z,10.47
2019-03-06T17:47:41.685Z,9.20
2019-03-06T17:50:08.710Z,15.57
2019-03-06T17:52:35.775Z,21.07
2019-03-06T17:55:03.293Z,7.93
2019-03-06T17:57:30.298Z,4.33
2019-03-06T17:59:57.084Z,6.37
2019-03-06T18:02:26.458Z,2.77
2019-03-06T18:04:53.701Z,4.77
2019-03-06T18:07:20.706Z,7.33
2019-03-06T18:09:47.713Z,7.40
2019-03-06T18:12:16.110Z,7.10
2019-03-06T18:14:43.513Z,6.80
2019-03-06T18:17:13.732Z,3.50
2019-03-06T18:19:40.615Z,5.23
2019-03-06T18:22:07.724Z,4.67
2019-03-06T18:24:34.882Z,7.70
2019-03-06T18:27:05.897Z,8.83
2019-03-06T18:29:35.827Z,9.77
2019-03-06T18:32:03.133Z,7.67
2019-03-06T18:34:30.025Z,6.93
2019-03-06T18:36:57.217Z,7.60
2019-03-06T18:39:24.209Z,9.27
2019-03-06T18:41:51.557Z,8.43
2019-03-06T18:44:18.633Z,6.40
2019-03-06T18:46:45.738Z,5.80
2019-03-06T18:49:12.714Z,10.03
2019-03-06T18:51:39.690Z,9.70
2019-03-06T18:54:06.721Z,17.10
2019-03-06T18:56:33.687Z,14.70
2019-03-06T18:59:00.565Z,11.20
2019-03-06T19:01:27.630Z,10.17
2019-03-06T19:03:55.810Z,11.53
2019-03-06T19:06:22.898Z,13.27
2019-03-06T19:08:50.241Z,11.13
2019-03-06T19:11:17.387Z,12.60
2019-03-06T19:13:44.461Z,5.80
2019-03-06T19:16:13.571Z,7.00
2019-03-06T19:18:40.590Z,4.10
2019-03-06T19:21:07.459Z,5.87
2019-03-06T19:23:34.452Z,5.80
2019-03-06T19:26:01.581Z,7.57
2019-03-06T19:28:28.774Z,5.13
2019-03-06T19:30:55.649Z,7.33
2019-03-06T19:33:22.722Z,5.40
2019-03-06T19:35:50.193Z,4.40
2019-03-06T19:38:17.092Z,6.37
2019-03-06T19:40:44.080Z,5.53
2019-03-06T19:43:11.182Z,5.90
2019-03-06T19:45:38.197Z,8.63
2019-03-06T19:48:05.284Z,7.23
2019-03-06T19:50:32.173Z,4.43
2019-03-06T19:52:59.149Z,8.67
2019-03-06T19:55:28.545Z,4.87
2019-03-06T19:58:00.132Z,5.57
2019-03-06T20:00:29.488Z,6.70
2019-03-06T20:02:57.119Z,8.60
2019-03-06T20:05:26.580Z,6.30
2019-03-06T20:07:53.795Z,4.40
2019-03-06T20:10:21.811Z,6.33
2019-03-06T20:12:48.939Z,7.73
2019-03-06T20:15:16.890Z,13.50
2019-03-06T20:17:44.000Z,8.73
2019-03-06T20:20:11.226Z,7.50
2019-03-06T20:22:38.223Z,6.93
2019-03-06T20:25:05.425Z,7.33
2019-03-06T20:27:34.914Z,6.93
2019-03-06T20:30:02.075Z,5.13
2019-03-06T20:32:31.659Z,5.60
2019-03-06T20:34:58.668Z,5.47
2019-03-06T20:37:25.665Z,5.97
2019-03-06T20:39:52.779Z,5.17
2019-03-06T20:42:19.851Z,6.10
2019-03-06T20:44:48.763Z,8.47
2019-03-06T20:47:18.357Z,4.50
2019-03-06T20:49:45.457Z,6.17
2019-03-06T20:52:12.369Z,7.57
2019-03-06T20:54:40.820Z,9.47
2019-03-06T20:57:08.116Z,8.10
2019-03-06T20:59:36.928Z,4.33
2019-03-06T21:02:03.943Z,23.80
2019-03-06T21:04:30.835Z,7.70
2019-03-06T21:06:57.804Z,18.53
2019-03-06T21:09:25.005Z,6.33
2019-03-06T21:11:51.886Z,3.70
2019-03-06T21:14:18.787Z,6.80
2019-03-06T21:16:45.662Z,7.13
2019-03-06T21:19:12.533Z,7.13
2019-03-06T21:21:39.420Z,3.63
2019-03-06T21:24:06.461Z,5.63
2019-03-06T21:26:33.436Z,4.13
2019-03-06T21:29:00.430Z,5.63
2019-03-06T21:31:27.445Z,6.67
2019-03-06T21:33:54.367Z,4.93
2019-03-06T21:36:21.420Z,7.10
2019-03-06T21:38:48.329Z,12.10
2019-03-06T21:41:15.338Z,17.00
2019-03-06T21:43:42.222Z,6.10
2019-03-06T21:46:09.194Z,4.87
2019-03-06T21:48:36.204Z,5.77
2019-03-06T21:51:05.345Z,10.67
2019-03-06T21:53:32.057Z,6.97
2019-03-06T21:55:59.090Z,5.27
2019-03-06T21:58:26.112Z,6.77
2019-03-06T22:00:53.221Z,7.93
2019-03-06T22:03:20.263Z,9.37
2019-03-06T22:05:47.522Z,5.83
2019-03-06T22:08:14.498Z,11.10
2019-03-06T22:10:41.494Z,7.13
2019-03-06T22:13:08.480Z,6.70
2019-03-06T22:15:35.480Z,10.90
2019-03-06T22:18:02.564Z,6.53
2019-03-06T22:20:29.575Z,9.43
2019-03-06T22:22:56.769Z,6.53
2019-03-06T22:25:23.761Z,7.60
2019-03-06T22:27:50.651Z,7.33
2019-03-06T22:30:17.751Z,7.37
2019-03-06T22:32:44.700Z,7.87
2019-03-06T22:35:11.890Z,8.63
2019-03-06T22:37:38.962Z,6.40
2019-03-06T22:40:06.418Z,9.07
2019-03-06T22:42:33.632Z,7.33
2019-03-06T22:45:00.632Z,10.73
2019-03-06T22:47:27.520Z,8.77
2019-03-06T22:49:54.525Z,6.80
2019-03-06T22:52:21.416Z,6.53
2019-03-06T22:54:48.432Z,9.50
2019-03-06T22:57:15.409Z,12.20
2019-03-06T22:59:42.432Z,7.60
2019-03-06T23:02:10.041Z,7.83
2019-03-06T23:04:37.055Z,8.43
2019-03-06T23:07:04.876Z,6.27
2019-03-06T23:09:31.888Z,6.10
2019-03-06T23:11:58.769Z,11.00
2019-03-06T23:14:25.622Z,7.43
2019-03-06T23:16:52.534Z,5.73
2019-03-06T23:19:19.537Z,6.20
2019-03-06T23:21:46.446Z,7.67
2019-03-06T23:24:13.356Z,8.60
2019-03-06T23:26:43.107Z,9.17
2019-03-06T23:29:09.172Z,6.67
2019-03-06T23:31:36.176Z,6.40
2019-03-06T23:34:03.164Z,7.03
2019-03-06T23:36:30.023Z,10.47
2019-03-06T23:38:57.046Z,9.80
2019-03-06T23:41:23.828Z,7.77
2019-03-06T23:43:50.710Z,9.97
2019-03-06T23:46:17.596Z,6.70
2019-03-06T23:48:44.777Z,9.33
2019-03-06T23:51:31.326Z,11.33
2019-03-06T23:53:58.212Z,7.93
2019-03-06T23:56:25.097Z,6.73
2019-03-06T23:58:51.852Z,8.20
